createdAt,value
2022-11-16T00:04:40.044Z,64.48
2022-11-16T00:09:43.249Z,64.15
2022-11-16T00:14:46.461Z,63.82
2022-11-16T00:19:49.774Z,62.62
2022-11-16T00:24:53.087Z,61.97
2022-11-16T00:29:56.402Z,61.82
2022-11-16T00:34:59.518Z,61.67
2022-11-16T00:40:02.723Z,63.38
2022-11-16T00:45:06.538Z,63.36
2022-11-16T00:50:10.168Z,64.72
2022-11-16T00:55:13.379Z,67.73
2022-11-16T01:00:17.332Z,70.29
2022-11-16T01:05:21.544Z,73.15
2022-11-16T01:10:26.366Z,76.63
2022-11-16T01:15:29.498Z,78.75
2022-11-16T01:20:32.817Z,78.67
2022-11-16T01:25:35.820Z,78.58
2022-11-16T01:30:38.827Z,78.83
2022-11-16T01:35:45.260Z,77.69
2022-11-16T01:40:48.320Z,76.95
2022-11-16T01:45:51.623Z,76.03
2022-11-16T01:50:57.667Z,75.08
2022-11-16T01:56:01.027Z,74.21
2022-11-16T02:01:04.626Z,75.21
2022-11-16T02:06:25.572Z,74.66
2022-11-16T02:12:13.538Z,75.89
2022-11-16T02:17:33.328Z,74.72
2022-11-16T02:23:04.696Z,73.47
2022-11-16T02:28:45.594Z,74.31
2022-11-16T02:33:50.524Z,72.38
2022-11-16T02:39:05.839Z,73.38
2022-11-16T02:44:18.572Z,71.93
2022-11-16T02:49:24.262Z,67.23
2022-11-16T02:54:28.136Z,67.73
2022-11-16T02:59:39.573Z,66.59
2022-11-16T03:04:48.775Z,66.32
2022-11-16T03:09:54.806Z,64.70
2022-11-16T03:15:09.142Z,62.82
2022-11-16T03:20:14.641Z,63.00
2022-11-16T03:25:20.037Z,64.73
2022-11-16T03:30:25.788Z,66.05
2022-11-16T03:35:58.170Z,65.74
2022-11-16T03:41:05.986Z,64.66
2022-11-16T03:46:09.426Z,66.35
2022-11-16T03:51:12.716Z,62.81
2022-11-16T03:56:15.723Z,63.03
2022-11-16T04:01:18.867Z,61.45
2022-11-16T04:06:40.678Z,59.73
2022-11-16T04:12:02.631Z,65.66
2022-11-16T04:17:35.148Z,66.34
2022-11-16T04:23:07.524Z,65.43
2022-11-16T04:28:13.528Z,61.89
2022-11-16T04:33:35.279Z,59.19
2022-11-16T04:38:38.358Z,65.27
2022-11-16T04:43:41.361Z,61.74
2022-11-16T04:48:44.469Z,60.06
2022-11-16T04:53:47.578Z,62.23
2022-11-16T04:58:50.586Z,58.20
2022-11-16T05:03:53.795Z,63.07
2022-11-16T05:08:56.701Z,61.64
2022-11-16T05:13:59.809Z,60.79
2022-11-16T05:19:22.272Z,62.53
2022-11-16T05:24:34.188Z,59.92
2022-11-16T05:29:38.086Z,63.08
2022-11-16T05:34:41.017Z,60.03
2022-11-16T05:39:44.229Z,61.85
2022-11-16T05:44:47.345Z,62.51
2022-11-16T05:49:50.448Z,60.58
2022-11-16T05:54:53.454Z,62.42
2022-11-16T05:59:56.460Z,59.53
2022-11-16T06:04:59.571Z,63.15
2022-11-16T06:10:02.579Z,60.17
2022-11-16T06:15:06.180Z,62.05
2022-11-16T06:20:10.181Z,59.86
2022-11-16T06:25:13.130Z,63.54
2022-11-16T06:30:16.753Z,60.26
2022-11-16T06:35:19.655Z,63.23
2022-11-16T06:40:22.763Z,60.56
2022-11-16T06:45:27.100Z,61.55
2022-11-16T06:50:32.872Z,64.10
2022-11-16T06:55:35.981Z,61.11
2022-11-16T07:00:39.090Z,64.09
2022-11-16T07:05:42.404Z,60.26
2022-11-16T07:10:45.409Z,64.49
2022-11-16T07:15:48.320Z,60.90
2022-11-16T07:20:51.320Z,61.80
2022-11-16T07:25:54.223Z,59.83
2022-11-16T07:31:04.194Z,63.03
2022-11-16T07:36:10.021Z,58.15
2022-11-16T07:41:16.472Z,63.03
2022-11-16T07:46:45.933Z,59.47
2022-11-16T07:51:45.936Z,62.11
2022-11-16T07:56:48.924Z,61.41
2022-11-16T08:01:52.074Z,61.05
2022-11-16T08:06:55.219Z,62.53
2022-11-16T08:11:58.149Z,59.83
2022-11-16T08:17:01.188Z,62.24
2022-11-16T08:22:04.262Z,58.36
2022-11-16T08:27:07.369Z,61.21
2022-11-16T08:32:10.376Z,60.83
2022-11-16T08:37:13.380Z,59.10
2022-11-16T08:42:16.496Z,62.44
2022-11-16T08:47:19.497Z,57.81
2022-11-16T08:52:22.501Z,62.37
2022-11-16T08:57:25.506Z,59.18
2022-11-16T09:02:28.724Z,62.61
2022-11-16T09:07:31.891Z,61.58
2022-11-16T09:12:35.750Z,59.10
2022-11-16T09:17:38.771Z,62.51
2022-11-16T09:22:42.386Z,58.76
2022-11-16T09:27:45.391Z,62.38
2022-11-16T09:32:48.563Z,59.16
2022-11-16T09:37:51.709Z,61.22
2022-11-16T09:43:22.979Z,60.74
2022-11-16T09:48:26.599Z,59.39
2022-11-16T09:53:39.006Z,61.05
2022-11-16T09:59:04.259Z,58.85
2022-11-16T10:04:13.302Z,62.33
2022-11-16T10:09:17.092Z,58.51
2022-11-16T10:15:14.407Z,62.28
2022-11-16T10:20:44.999Z,60.84
2022-11-16T10:25:55.086Z,57.96
2022-11-16T10:31:18.315Z,61.52
2022-11-16T10:36:27.535Z,56.75
2022-11-16T10:41:41.228Z,61.33
2022-11-16T10:46:52.930Z,60.89
2022-11-16T10:51:56.247Z,58.76
2022-11-16T10:57:04.846Z,61.42
2022-11-16T11:02:26.424Z,59.21
2022-11-16T11:07:32.938Z,61.22
2022-11-16T11:12:38.900Z,59.24
2022-11-16T11:17:45.204Z,59.21
2022-11-16T11:23:02.521Z,59.60
2022-11-16T11:28:07.365Z,58.06
2022-11-16T11:33:12.826Z,61.83
2022-11-16T11:38:16.318Z,57.73
2022-11-16T11:43:24.627Z,61.20
2022-11-16T11:48:49.699Z,59.83
2022-11-16T11:53:58.087Z,59.27
2022-11-16T11:59:04.441Z,61.18
2022-11-16T12:04:28.420Z,58.84
2022-11-16T12:10:05.728Z,60.77
2022-11-16T12:16:02.697Z,57.90
2022-11-16T12:21:18.300Z,61.69
2022-11-16T12:26:33.286Z,59.42
2022-11-16T12:31:59.131Z,60.18
2022-11-16T12:37:15.244Z,61.41
2022-11-16T12:42:30.538Z,59.92
2022-11-16T12:47:54.948Z,57.75
2022-11-16T12:53:20.888Z,60.89
2022-11-16T12:58:35.979Z,56.94
2022-11-16T13:03:48.508Z,60.25
2022-11-16T13:09:11.385Z,58.34
2022-11-16T13:14:39.270Z,61.59
2022-11-16T13:19:46.987Z,60.00
2022-11-16T13:24:59.006Z,58.47
2022-11-16T13:30:02.016Z,60.38
2022-11-16T13:35:06.817Z,57.81
2022-11-16T13:40:38.435Z,60.71
2022-11-16T13:45:59.468Z,57.79
2022-11-16T13:51:06.578Z,60.34
2022-11-16T13:56:09.778Z,57.10
2022-11-16T14:01:14.579Z,60.59
2022-11-16T14:06:20.504Z,57.09
2022-11-16T14:11:34.361Z,61.96
2022-11-16T14:16:45.456Z,55.68
2022-11-16T14:21:59.116Z,60.75
2022-11-16T14:27:02.034Z,57.10
2022-11-16T14:32:27.351Z,62.10
2022-11-16T14:37:35.022Z,56.05
